Wetterdaten: Samstag, 04.10.2014
Datum Zeit Temp. A. Feuchte A. Luftdruck Regen Wind Richtung Richtung Sonnenschein ET UV Solar Taupunkt Windchill Windben Empfang
04.10.2014 00:00 10,0 C 87 % 1021,8 hPa 0,0 l/m 0,0 km/h (0 Bft) S-SO 152 0 min 0,000 mm 0,0 UV-I 0 W/m 7,9 C 10,0 C 0,0 km/h (0 Bft) 0,00 %
04.10.2014 00:15 9,7 C 87 % 1021,8 hPa 0,0 l/m 0,0 km/h (0 Bft) S 172 0 min 0,000 mm 0,0 UV-I 0 W/m 7,6 C 9,7 C 0,0 km/h (0 Bft) 0,00 %
04.10.2014 00:30 9,9 C 87 % 1022,0 hPa 0,0 l/m 0,0 km/h (0 Bft) O-SO 118 0 min 0,000 mm 0,0 UV-I 0 W/m 7,8 C 9,9 C 0,0 km/h (0 Bft) 0,00 %
04.10.2014 00:45 10,0 C 87 % 1021,9 hPa 0,0 l/m 2,9 km/h (1 Bft) O 91 0 min 0,000 mm 0,0 UV-I 0 W/m 7,9 C 10,0 C 4,0 km/h (1 Bft) 0,00 %
04.10.2014 01:00 10,1 C 86 % 1021,9 hPa 0,0 l/m 6,8 km/h (2 Bft) S 181 0 min 0,000 mm 0,0 UV-I 0 W/m 7,9 C 9,8 C 7,9 km/h (2 Bft) 0,00 %
04.10.2014 01:15 10,2 C 86 % 1021,6 hPa 0,0 l/m 2,9 km/h (1 Bft) O-SO 119 0 min 0,000 mm 0,0 UV-I 0 W/m 8,0 C 10,2 C 4,0 km/h (1 Bft) 0,00 %
04.10.2014 01:30 10,1 C 85 % 1021,7 hPa 0,0 l/m 3,2 km/h (1 Bft) O-SO 120 0 min 0,000 mm 0,0 UV-I 0 W/m 7,7 C 10,1 C 4,0 km/h (1 Bft) 0,00 %
04.10.2014 01:45 9,9 C 85 % 1021,5 hPa 0,0 l/m 5,4 km/h (1 Bft) O-SO 106 0 min 0,000 mm 0,0 UV-I 0 W/m 7,5 C 9,9 C 11,9 km/h (2 Bft) 0,00 %
04.10.2014 02:00 9,7 C 84 % 1021,4 hPa 0,0 l/m 5,8 km/h (2 Bft) O 93 0 min 0,000 mm 0,0 UV-I 0 W/m 7,1 C 9,7 C 7,9 km/h (2 Bft) 0,00 %
04.10.2014 02:15 9,6 C 84 % 1021,4 hPa 0,0 l/m 9,4 km/h (2 Bft) O 96 0 min 0,000 mm 0,0 UV-I 0 W/m 7,0 C 7,5 C 15,8 km/h (3 Bft) 0,00 %
04.10.2014 02:30 9,6 C 85 % 1021,2 hPa 0,0 l/m 3,2 km/h (1 Bft) O-NO 78 0 min 0,000 mm 0,0 UV-I 0 W/m 7,2 C 9,6 C 7,9 km/h (2 Bft) 0,00 %
04.10.2014 02:45 9,6 C 85 % 1021,2 hPa 0,0 l/m 7,2 km/h (2 Bft) O 101 0 min 0,000 mm 0,0 UV-I 0 W/m 7,2 C 9,0 C 11,9 km/h (2 Bft) 0,00 %
04.10.2014 03:00 9,7 C 85 % 1021,1 hPa 0,0 l/m 0,4 km/h (0 Bft) O-NO 61 0 min 0,000 mm 0,0 UV-I 0 W/m 7,3 C 9,7 C 4,0 km/h (1 Bft) 0,00 %
04.10.2014 03:15 9,7 C 85 % 1021,1 hPa 0,0 l/m 0,4 km/h (0 Bft) SO 137 0 min 0,000 mm 0,0 UV-I 0 W/m 7,3 C 9,7 C 4,0 km/h (1 Bft) 0,00 %
04.10.2014 03:30 9,7 C 85 % 1020,8 hPa 0,0 l/m 10,8 km/h (2 Bft) O 98 0 min 0,000 mm 0,0 UV-I 0 W/m 7,3 C 6,8 C 11,9 km/h (2 Bft) 0,00 %
04.10.2014 03:45 9,7 C 85 % 1020,7 hPa 0,0 l/m 4,7 km/h (1 Bft) O 93 0 min 0,000 mm 0,0 UV-I 0 W/m 7,3 C 9,7 C 7,9 km/h (2 Bft) 0,00 %
04.10.2014 04:00 9,6 C 85 % 1020,9 hPa 0,0 l/m 1,4 km/h (1 Bft) NO 56 0 min 0,000 mm 0,0 UV-I 0 W/m 7,2 C 9,6 C 4,0 km/h (1 Bft) 0,00 %
04.10.2014 04:15 9,6 C 84 % 1020,8 hPa 0,0 l/m 6,5 km/h (2 Bft) O-NO 75 0 min 0,000 mm 0,0 UV-I 0 W/m 7,0 C 9,6 C 11,9 km/h (2 Bft) 0,00 %
04.10.2014 04:30 9,4 C 84 % 1020,6 hPa 0,0 l/m 3,2 km/h (1 Bft) O 80 0 min 0,000 mm 0,0 UV-I 0 W/m 6,8 C 9,4 C 7,9 km/h (2 Bft) 0,00 %
04.10.2014 04:45 9,2 C 84 % 1020,8 hPa 0,0 l/m 7,9 km/h (2 Bft) O 81 0 min 0,000 mm 0,0 UV-I 0 W/m 6,6 C 8,1 C 11,9 km/h (2 Bft) 0,00 %
04.10.2014 05:00 9,2 C 84 % 1020,7 hPa 0,0 l/m 0,7 km/h (0 Bft) O-SO 108 0 min 0,000 mm 0,0 UV-I 0 W/m 6,6 C 9,2 C 4,0 km/h (1 Bft) 0,00 %
04.10.2014 05:15 9,3 C 83 % 1020,4 hPa 0,0 l/m 6,8 km/h (2 Bft) O 86 0 min 0,000 mm 0,0 UV-I 0 W/m 6,6 C 9,0 C 11,9 km/h (2 Bft) 0,00 %
04.10.2014 05:30 9,3 C 83 % 1020,3 hPa 0,0 l/m 13,3 km/h (3 Bft) O-SO 105 0 min 0,000 mm 0,0 UV-I 0 W/m 6,6 C 5,1 C 15,8 km/h (3 Bft) 0,00 %
04.10.2014 05:45 9,3 C 83 % 1020,3 hPa 0,0 l/m 1,8 km/h (1 Bft) S 173 0 min 0,000 mm 0,0 UV-I 0 W/m 6,6 C 9,3 C 4,0 km/h (1 Bft) 0,00 %
04.10.2014 06:00 9,4 C 83 % 1020,2 hPa 0,0 l/m 0,4 km/h (0 Bft) NO 40 0 min 0,000 mm 0,0 UV-I 0 W/m 6,7 C 9,4 C 4,0 km/h (1 Bft) 0,00 %
04.10.2014 06:15 9,4 C 82 % 1020,2 hPa 0,0 l/m 16,9 km/h (3 Bft) SO 127 0 min 0,000 mm 0,0 UV-I 0 W/m 6,5 C 3,6 C 24,1 km/h (4 Bft) 0,00 %
04.10.2014 06:30 9,4 C 82 % 1020,2 hPa 0,0 l/m 6,5 km/h (2 Bft) SO 131 0 min 0,000 mm 0,0 UV-I 0 W/m 6,5 C 9,4 C 11,9 km/h (2 Bft) 0,00 %
04.10.2014 06:45 9,3 C 82 % 1020,1 hPa 0,0 l/m 8,3 km/h (2 Bft) O-SO 122 0 min 0,000 mm 0,0 UV-I 0 W/m 6,4 C 7,9 C 11,9 km/h (2 Bft) 0,00 %
04.10.2014 07:00 9,3 C 82 % 1020,0 hPa 0,0 l/m 18,0 km/h (3 Bft) O 101 0 min 0,000 mm 0,0 UV-I 0 W/m 6,4 C 3,1 C 19,8 km/h (3 Bft) 0,00 %
04.10.2014 07:15 9,3 C 82 % 1020,0 hPa 0,0 l/m 6,5 km/h (2 Bft) SO 132 0 min 0,000 mm 0,0 UV-I 0 W/m 6,4 C 9,3 C 11,9 km/h (2 Bft) 0,00 %
04.10.2014 07:30 9,3 C 82 % 1020,0 hPa 0,0 l/m 7,2 km/h (2 Bft) O 98 0 min 0,000 mm 0,0 UV-I 0 W/m 6,4 C 8,7 C 7,9 km/h (2 Bft) 0,00 %
04.10.2014 07:45 9,3 C 82 % 1020,1 hPa 0,0 l/m 1,4 km/h (1 Bft) O 83 0 min 0,000 mm 0,0 UV-I 2 W/m 6,4 C 9,3 C 4,0 km/h (1 Bft) 0,00 %
04.10.2014 08:00 9,3 C 82 % 1020,3 hPa 0,0 l/m 14,0 km/h (3 Bft) O 99 0 min 0,000 mm 0,0 UV-I 9 W/m 6,4 C 4,7 C 19,8 km/h (3 Bft) 0,00 %
04.10.2014 08:15 9,3 C 82 % 1020,2 hPa 0,0 l/m 2,9 km/h (1 Bft) S 183 0 min 0,000 mm 0,0 UV-I 22 W/m 6,4 C 9,3 C 11,9 km/h (2 Bft) 0,00 %
04.10.2014 08:30 9,4 C 81 % 1020,1 hPa 0,0 l/m 11,5 km/h (2 Bft) O-SO 109 0 min 0,000 mm 0,0 UV-I 30 W/m 6,3 C 6,1 C 15,8 km/h (3 Bft) 0,00 %
04.10.2014 08:45 9,5 C 81 % 1020,0 hPa 0,0 l/m 9,4 km/h (2 Bft) O 93 0 min 0,000 mm 1,0 UV-I 31 W/m 6,4 C 7,4 C 15,8 km/h (3 Bft) 0,00 %
04.10.2014 09:00 9,6 C 80 % 1019,8 hPa 0,0 l/m 9,0 km/h (2 Bft) O-SO 109 0 min 0,000 mm 1,0 UV-I 40 W/m 6,3 C 7,8 C 15,8 km/h (3 Bft) 0,00 %
04.10.2014 09:15 9,7 C 81 % 1019,7 hPa 0,0 l/m 3,2 km/h (1 Bft) S 190 0 min 0,000 mm 1,0 UV-I 49 W/m 6,6 C 9,7 C 4,0 km/h (1 Bft) 0,00 %
04.10.2014 09:30 9,8 C 81 % 1019,6 hPa 0,0 l/m 2,2 km/h (1 Bft) O 86 0 min 0,000 mm 1,0 UV-I 56 W/m 6,7 C 9,8 C 4,0 km/h (1 Bft) 0,00 %
04.10.2014 09:45 9,9 C 81 % 1019,8 hPa 0,0 l/m 3,2 km/h (1 Bft) SW 227 0 min 0,000 mm 1,0 UV-I 68 W/m 6,8 C 9,9 C 7,9 km/h (2 Bft) 0,00 %
04.10.2014 10:00 9,9 C 80 % 1019,5 hPa 0,0 l/m 2,2 km/h (1 Bft) N-NW 335 0 min 0,000 mm 1,0 UV-I 65 W/m 6,6 C 9,9 C 7,9 km/h (2 Bft) 0,00 %
04.10.2014 10:15 10,0 C 80 % 1019,6 hPa 0,0 l/m 4,3 km/h (1 Bft) O 87 0 min 0,000 mm 1,0 UV-I 83 W/m 6,7 C 10,0 C 7,9 km/h (2 Bft) 0,00 %
04.10.2014 10:30 10,1 C 80 % 1019,7 hPa 0,0 l/m 9,4 km/h (2 Bft) O-SO 105 0 min 0,000 mm 1,0 UV-I 91 W/m 6,8 C 8,1 C 11,9 km/h (2 Bft) 0,00 %
04.10.2014 10:45 10,2 C 80 % 1019,4 hPa 0,0 l/m 9,4 km/h (2 Bft) O 100 0 min 0,000 mm 1,0 UV-I 85 W/m 6,9 C 8,2 C 11,9 km/h (2 Bft) 0,00 %
04.10.2014 11:00 10,3 C 80 % 1019,4 hPa 0,0 l/m 5,4 km/h (1 Bft) O 80 0 min 0,000 mm 1,0 UV-I 87 W/m 7,0 C 10,3 C 7,9 km/h (2 Bft) 0,00 %
04.10.2014 11:15 10,3 C 79 % 1019,3 hPa 0,0 l/m 4,0 km/h (1 Bft) S 179 0 min 0,000 mm 1,0 UV-I 81 W/m 6,8 C 10,3 C 7,9 km/h (2 Bft) 0,00 %
04.10.2014 11:30 10,5 C 78 % 1019,2 hPa 0,0 l/m 1,4 km/h (1 Bft) O-SO 105 0 min 0,000 mm 1,0 UV-I 91 W/m 6,8 C 10,5 C 4,0 km/h (1 Bft) 0,00 %
04.10.2014 11:45 10,6 C 77 % 1019,0 hPa 0,0 l/m 5,4 km/h (1 Bft) S 172 0 min 0,000 mm 1,0 UV-I 89 W/m 6,7 C 10,6 C 7,9 km/h (2 Bft) 0,00 %
04.10.2014 12:00 10,8 C 75 % 1018,9 hPa 0,0 l/m 7,9 km/h (2 Bft) O 97 0 min 0,000 mm 1,0 UV-I 131 W/m 6,5 C 9,8 C 11,9 km/h (2 Bft) 0,00 %
04.10.2014 12:15 11,1 C 74 % 1018,6 hPa 0,0 l/m 5,8 km/h (2 Bft) O 84 0 min 0,000 mm 3,0 UV-I 136 W/m 6,6 C 11,1 C 7,9 km/h (2 Bft) 0,00 %
04.10.2014 12:30 11,6 C 72 % 1018,5 hPa 0,0 l/m 2,9 km/h (1 Bft) S-SW 205 0 min 0,000 mm 3,0 UV-I 185 W/m 6,7 C 11,6 C 7,9 km/h (2 Bft) 0,00 %
04.10.2014 12:45 12,4 C 69 % 1018,3 hPa 0,0 l/m 11,9 km/h (2 Bft) O 92 0 min 0,000 mm 2,0 UV-I 273 W/m 6,9 C 9,3 C 15,8 km/h (3 Bft) 0,00 %
04.10.2014 13:00 12,6 C 69 % 1017,9 hPa 0,0 l/m 10,8 km/h (2 Bft) SO 128 0 min 0,000 mm 3,0 UV-I 229 W/m 7,1 C 10,1 C 15,8 km/h (3 Bft) 0,00 %
04.10.2014 13:15 12,8 C 69 % 1017,8 hPa 0,0 l/m 5,4 km/h (1 Bft) S-SO 156 0 min 0,000 mm 3,0 UV-I 259 W/m 7,3 C 12,8 C 7,9 km/h (2 Bft) 0,00 %
04.10.2014 13:30 13,0 C 68 % 1017,5 hPa 0,0 l/m 4,7 km/h (1 Bft) O-SO 113 0 min 0,000 mm 2,0 UV-I 277 W/m 7,2 C 13,0 C 7,9 km/h (2 Bft) 0,00 %
04.10.2014 13:45 13,3 C 66 % 1017,1 hPa 0,0 l/m 4,0 km/h (1 Bft) SO 133 0 min 0,000 mm 3,0 UV-I 251 W/m 7,1 C 13,3 C 7,9 km/h (2 Bft) 0,00 %
04.10.2014 14:00 13,6 C 67 % 1016,3 hPa 0,0 l/m 6,8 km/h (2 Bft) O-SO 102 0 min 0,000 mm 3,0 UV-I 279 W/m 7,6 C 13,4 C 7,9 km/h (2 Bft) 0,00 %
04.10.2014 14:15 13,7 C 66 % 1016,3 hPa 0,0 l/m 4,0 km/h (1 Bft) S-SO 149 0 min 0,000 mm 3,0 UV-I 299 W/m 7,5 C 13,7 C 4,0 km/h (1 Bft) 0,00 %
04.10.2014 14:30 13,9 C 66 % 1016,0 hPa 0,0 l/m 2,9 km/h (1 Bft) N-NO 33 0 min 0,000 mm 2,0 UV-I 249 W/m 7,7 C 13,9 C 7,9 km/h (2 Bft) 0,00 %
04.10.2014 14:45 13,9 C 67 % 1015,6 hPa 0,0 l/m 1,4 km/h (1 Bft) SO 124 0 min 0,000 mm 2,0 UV-I 205 W/m 7,9 C 13,9 C 4,0 km/h (1 Bft) 0,00 %
04.10.2014 15:00 13,9 C 67 % 1015,3 hPa 0,0 l/m 6,5 km/h (2 Bft) O-SO 123 0 min 0,000 mm 2,0 UV-I 250 W/m 7,9 C 13,9 C 7,9 km/h (2 Bft) 0,00 %
04.10.2014 15:15 14,0 C 68 % 1015,3 hPa 0,0 l/m 5,4 km/h (1 Bft) O 87 0 min 0,000 mm 2,0 UV-I 255 W/m 8,2 C 14,0 C 7,9 km/h (2 Bft) 0,00 %
04.10.2014 15:30 14,1 C 67 % 1015,1 hPa 0,0 l/m 5,8 km/h (2 Bft) SO 134 15 min 0,000 mm 2,0 UV-I 300 W/m 8,1 C 14,1 C 7,9 km/h (2 Bft) 0,00 %
04.10.2014 15:45 13,9 C 68 % 1015,1 hPa 0,0 l/m 8,3 km/h (2 Bft) O-SO 104 15 min 0,000 mm 2,0 UV-I 322 W/m 8,1 C 12,8 C 11,9 km/h (2 Bft) 0,00 %
04.10.2014 16:00 13,9 C 68 % 1015,0 hPa 0,0 l/m 13,0 km/h (3 Bft) O 85 15 min 0,000 mm 2,0 UV-I 333 W/m 8,1 C 10,6 C 15,8 km/h (3 Bft) 0,00 %
04.10.2014 16:15 14,0 C 68 % 1014,8 hPa 0,0 l/m 4,0 km/h (1 Bft) S 181 15 min 0,000 mm 1,0 UV-I 345 W/m 8,2 C 14,0 C 7,9 km/h (2 Bft) 0,00 %
04.10.2014 16:30 14,0 C 68 % 1014,8 hPa 0,0 l/m 5,8 km/h (2 Bft) SO 127 15 min 0,000 mm 1,0 UV-I 350 W/m 8,2 C 14,0 C 7,9 km/h (2 Bft) 0,00 %
04.10.2014 16:45 13,9 C 67 % 1014,6 hPa 0,0 l/m 11,9 km/h (2 Bft) O-NO 77 15 min 0,000 mm 1,0 UV-I 366 W/m 7,9 C 11,0 C 15,8 km/h (3 Bft) 0,00 %
04.10.2014 17:00 14,0 C 68 % 1015,0 hPa 0,0 l/m 6,8 km/h (2 Bft) O 92 15 min 0,000 mm 1,0 UV-I 307 W/m 8,2 C 13,8 C 7,9 km/h (2 Bft) 0,00 %
04.10.2014 17:15 13,9 C 70 % 1014,8 hPa 0,0 l/m 8,3 km/h (2 Bft) SO 145 15 min 0,000 mm 1,0 UV-I 246 W/m 8,5 C 12,8 C 11,9 km/h (2 Bft) 0,00 %
04.10.2014 17:30 13,5 C 72 % 1015,3 hPa 0,0 l/m 9,7 km/h (2 Bft) O-SO 106 15 min 0,000 mm 1,0 UV-I 143 W/m 8,6 C 11,6 C 11,9 km/h (2 Bft) 0,00 %
04.10.2014 17:45 13,4 C 72 % 1015,4 hPa 0,0 l/m 0,7 km/h (0 Bft) O-SO 105 15 min 0,000 mm 1,0 UV-I 112 W/m 8,5 C 13,4 C 4,0 km/h (1 Bft) 0,00 %
04.10.2014 18:00 13,1 C 73 % 1015,4 hPa 0,0 l/m 0,7 km/h (0 Bft) S-SO 162 15 min 0,000 mm 0,0 UV-I 62 W/m 8,4 C 13,1 C 4,0 km/h (1 Bft) 0,00 %
04.10.2014 18:15 12,7 C 75 % 1015,7 hPa 0,0 l/m 0,4 km/h (0 Bft) O 101 0 min 0,000 mm 0,0 UV-I 22 W/m 8,4 C 12,7 C 4,0 km/h (1 Bft) 0,00 %
04.10.2014 18:30 12,3 C 78 % 1015,8 hPa 0,0 l/m 0,0 km/h (0 Bft) S 174 0 min 0,000 mm 0,0 UV-I 0 W/m 8,6 C 12,3 C 0,0 km/h (0 Bft) 0,00 %
04.10.2014 18:45 12,4 C 76 % 1015,5 hPa 0,0 l/m 0,7 km/h (0 Bft) S 171 0 min 0,000 mm 0,0 UV-I 0 W/m 8,3 C 12,4 C 4,0 km/h (1 Bft) 0,00 %
04.10.2014 19:00 12,5 C 77 % 1015,7 hPa 0,0 l/m 0,4 km/h (0 Bft) O-SO 109 0 min 0,000 mm 0,0 UV-I 0 W/m 8,6 C 12,5 C 4,0 km/h (1 Bft) 0,00 %
04.10.2014 19:15 12,5 C 77 % 1015,6 hPa 0,0 l/m 0,0 km/h (0 Bft) O-SO 118 0 min 0,000 mm 0,0 UV-I 0 W/m 8,6 C 12,5 C 0,0 km/h (0 Bft) 0,00 %
04.10.2014 19:30 12,7 C 75 % 1015,6 hPa 0,0 l/m 1,8 km/h (1 Bft) O-SO 120 0 min 0,000 mm 0,0 UV-I 0 W/m 8,4 C 12,7 C 4,0 km/h (1 Bft) 0,00 %
04.10.2014 19:45 13,0 C 74 % 1015,3 hPa 0,0 l/m 10,4 km/h (2 Bft) O 96 0 min 0,000 mm 0,0 UV-I 0 W/m 8,5 C 10,7 C 11,9 km/h (2 Bft) 0,00 %
04.10.2014 20:00 13,1 C 73 % 1015,6 hPa 0,0 l/m 4,7 km/h (1 Bft) O 97 0 min 0,000 mm 0,0 UV-I 0 W/m 8,4 C 13,1 C 7,9 km/h (2 Bft) 0,00 %
04.10.2014 20:15 13,0 C 73 % 1015,4 hPa 0,0 l/m 0,4 km/h (0 Bft) O 100 0 min 0,000 mm 0,0 UV-I 0 W/m 8,3 C 13,0 C 4,0 km/h (1 Bft) 0,00 %
04.10.2014 20:30 12,9 C 74 % 1015,6 hPa 0,0 l/m 6,8 km/h (2 Bft) O-SO 104 0 min 0,000 mm 0,0 UV-I 0 W/m 8,4 C 12,7 C 11,9 km/h (2 Bft) 0,00 %
04.10.2014 20:45 12,7 C 74 % 1015,7 hPa 0,0 l/m 3,2 km/h (1 Bft) NO 45 0 min 0,000 mm 0,0 UV-I 0 W/m 8,2 C 12,7 C 7,9 km/h (2 Bft) 0,00 %
04.10.2014 21:00 12,5 C 75 % 1015,8 hPa 0,0 l/m 0,4 km/h (0 Bft) N-NO 24 0 min 0,000 mm 0,0 UV-I 0 W/m 8,2 C 12,5 C 4,0 km/h (1 Bft) 0,00 %
04.10.2014 21:15 12,3 C 76 % 1015,7 hPa 0,0 l/m 2,2 km/h (1 Bft) NO 51 0 min 0,000 mm 0,0 UV-I 0 W/m 8,2 C 12,3 C 4,0 km/h (1 Bft) 0,00 %
04.10.2014 21:30 12,1 C 77 % 1015,7 hPa 0,0 l/m 3,2 km/h (1 Bft) O 99 0 min 0,000 mm 0,0 UV-I 0 W/m 8,2 C 12,1 C 7,9 km/h (2 Bft) 0,00 %
04.10.2014 21:45 12,0 C 77 % 1015,9 hPa 0,0 l/m 5,8 km/h (2 Bft) O-SO 102 0 min 0,000 mm 0,0 UV-I 0 W/m 8,1 C 12,0 C 11,9 km/h (2 Bft) 0,00 %
04.10.2014 22:00 11,8 C 78 % 1016,0 hPa 0,0 l/m 4,3 km/h (1 Bft) SO 133 0 min 0,000 mm 0,0 UV-I 0 W/m 8,1 C 11,8 C 7,9 km/h (2 Bft) 0,00 %
04.10.2014 22:15 11,7 C 78 % 1016,1 hPa 0,0 l/m 5,8 km/h (2 Bft) O 88 0 min 0,000 mm 0,0 UV-I 0 W/m 8,0 C 11,7 C 7,9 km/h (2 Bft) 0,00 %
04.10.2014 22:30 11,6 C 78 % 1016,0 hPa 0,0 l/m 11,9 km/h (2 Bft) O 96 0 min 0,000 mm 0,0 UV-I 0 W/m 7,9 C 8,4 C 11,9 km/h (2 Bft) 0,00 %
04.10.2014 22:45 11,5 C 78 % 1016,1 hPa 0,0 l/m 4,7 km/h (1 Bft) O-SO 115 0 min 0,000 mm 0,0 UV-I 0 W/m 7,8 C 11,5 C 7,9 km/h (2 Bft) 0,00 %
04.10.2014 23:00 11,4 C 79 % 1016,0 hPa 0,0 l/m 0,4 km/h (0 Bft) NO 36 0 min 0,000 mm 0,0 UV-I 0 W/m 7,9 C 11,4 C 4,0 km/h (1 Bft) 0,00 %
04.10.2014 23:15 11,3 C 79 % 1015,9 hPa 0,0 l/m 1,4 km/h (1 Bft) S 174 0 min 0,000 mm 0,0 UV-I 0 W/m 7,8 C 11,3 C 4,0 km/h (1 Bft) 0,00 %
04.10.2014 23:30 11,2 C 80 % 1015,7 hPa 0,0 l/m 6,8 km/h (2 Bft) O 92 0 min 0,000 mm 0,0 UV-I 0 W/m 7,9 C 10,9 C 7,9 km/h (2 Bft) 0,00 %
04.10.2014 23:45 11,1 C 80 % 1015,7 hPa 0,0 l/m 0,4 km/h (0 Bft) SO 140 0 min 0,000 mm 0,0 UV-I 0 W/m 7,8 C 11,1 C 4,0 km/h (1 Bft) 0,00 %
_ Min-Zeit 04:45 13:45 16:45 - 00:00 - - - - - - 08:30 07:00 00:00 00:00
Minimum _ 9,2 C 66 % 1014,6 hPa - 0,0 km/h (0 Bft) - - - - - - 6,3 C 3,1 C 0,0 km/h (0 Bft) 0,00 %
_ Max-Zeit 15:30 00:00 00:30 00:00 07:00 - - 15:30 00:00 12:15 16:45 19:00 15:30 06:15 00:00
Maximum _ 14,1 C 87 % 1022,0 hPa 0,0 l/m 18,0 km/h
O (3 Bft)
- - 15 min 0,000 mm 3,0 UV-I 366 W/m 8,6 C 14,1 C 24,1 km/h
SO (4 Bft)
0,00 %
Durchschnitt _ 11,2 C 78 % 1018,2 hPa #0,0 l/m 5,2 km/h (1 Bft) O - #2:45 h #0,000 mm 1,6 UV-I 167 W/m 7,4 C 10,6 C 8,5 km/h (2 Bft) 0,00 %